FAB5819 SBSC-SDYJ
Flight info
| Callsign | FAB5819 |
|---|---|
| Flight time | N/A |
| Altitude | FL060 |
| Route | SBSC SC105 SBGW PIR SDPN CG032 SBCG |
| Aircraft | B429/L-S/N |
Departure
| Time | 2026-05-04 02:23 |
|---|---|
| Airport | Santa Cruz Air Force Base (SBSC) |
Arrival
| Time | N/A |
|---|---|
| Airport | José Martins da Silva Airport (SDYJ) |
| Time | Latitude | Longitude | Altitude | Speed | Heading |
|---|---|---|---|---|---|
| 2026-05-04 02:08 | -22.92650 | -43.71452 | 16 ft | 0 kts | 206° |
| 2026-05-04 02:13 | -22.92657 | -43.71457 | 18 ft | 3 kts | 229° |
| 2026-05-04 02:13 | -22.92666 | -43.71502 | 18 ft | 9 kts | 277° |
| 2026-05-04 02:13 | -22.92634 | -43.71541 | 19 ft | 8 kts | 321° |
| 2026-05-04 02:14 | -22.92582 | -43.71548 | 19 ft | 8 kts | 14° |
| 2026-05-04 02:14 | -22.92521 | -43.71521 | 20 ft | 10 kts | 24° |
| 2026-05-04 02:14 | -22.92438 | -43.71483 | 21 ft | 14 kts | 22° |
| 2026-05-04 02:14 | -22.92358 | -43.71445 | 20 ft | 13 kts | 25° |
| 2026-05-04 02:15 | -22.92278 | -43.71416 | 20 ft | 10 kts | 349° |
| 2026-05-04 02:15 | -22.92234 | -43.71466 | 19 ft | 9 kts | 291° |
| 2026-05-04 02:15 | -22.92220 | -43.71517 | 19 ft | 5 kts | 248° |
| 2026-05-04 02:15 | -22.92238 | -43.71538 | 20 ft | 3 kts | 199° |
| 2026-05-04 02:16 | -22.92289 | -43.71562 | 23 ft | 20 kts | 201° |
| 2026-05-04 02:16 | -22.92464 | -43.71638 | 43 ft | 28 kts | 218° |
| 2026-05-04 02:16 | -22.92535 | -43.71685 | 21 ft | 3 kts | 219° |
| 2026-05-04 02:16 | -22.92521 | -43.71686 | 33 ft | 1 kts | 302° |
| 2026-05-04 02:17 | -22.92515 | -43.71685 | 121 ft | 1 kts | 343° |
| 2026-05-04 02:17 | -22.92497 | -43.71681 | 79 ft | 3 kts | 353° |
| 2026-05-04 02:17 | -22.92471 | -43.71681 | 57 ft | 3 kts | 346° |
| 2026-05-04 02:17 | -22.92469 | -43.71681 | 25 ft | 1 kts | 341° |
| 2026-05-04 02:18 | -22.92472 | -43.71680 | 25 ft | 0 kts | 346° |
| 2026-05-04 02:18 | -22.92470 | -43.71681 | 32 ft | 0 kts | 348° |
| 2026-05-04 02:18 | -22.92477 | -43.71678 | 41 ft | 1 kts | 339° |
| 2026-05-04 02:18 | -22.92484 | -43.71675 | 45 ft | 1 kts | 338° |
| 2026-05-04 02:19 | -22.92478 | -43.71678 | 16 ft | 0 kts | 338° |
| 2026-05-04 02:22 | -22.92488 | -43.71681 | 21 ft | 6 kts | 322° |
| 2026-05-04 02:22 | -22.92570 | -43.71712 | 25 ft | 16 kts | 202° |
| 2026-05-04 02:22 | -22.92769 | -43.71788 | 53 ft | 48 kts | 201° |
| 2026-05-04 02:22 | -22.93181 | -43.71956 | 235 ft | 76 kts | 200° |
| 2026-05-04 02:23 | -22.93745 | -43.72174 | 469 ft | 100 kts | 200° |
| 2026-05-04 02:23 | -22.94433 | -43.72441 | 521 ft | 107 kts | 199° |
| 2026-05-04 02:23 | -22.95068 | -43.72817 | 585 ft | 103 kts | 220° |
| 2026-05-04 02:23 | -22.95593 | -43.73344 | 697 ft | 104 kts | 223° |
| 2026-05-04 02:24 | -22.96146 | -43.73863 | 795 ft | 105 kts | 219° |
| 2026-05-04 02:24 | -22.96724 | -43.74342 | 891 ft | 105 kts | 217° |
| 2026-05-04 02:24 | -22.97049 | -43.74973 | 952 ft | 92 kts | 266° |
| 2026-05-04 02:24 | -22.96811 | -43.75604 | 1101 ft | 96 kts | 304° |
| 2026-05-04 02:25 | -22.96419 | -43.76228 | 1202 ft | 103 kts | 303° |
| 2026-05-04 02:25 | -22.96061 | -43.76893 | 1289 ft | 103 kts | 298° |
| 2026-05-04 02:25 | -22.95763 | -43.77596 | 1385 ft | 102 kts | 292° |
| 2026-05-04 02:25 | -22.95518 | -43.78313 | 1482 ft | 102 kts | 288° |
| 2026-05-04 02:26 | -22.95316 | -43.79045 | 1581 ft | 101 kts | 285° |
| 2026-05-04 02:26 | -22.95150 | -43.79781 | 1679 ft | 101 kts | 282° |
| 2026-05-04 02:26 | -22.95011 | -43.80527 | 1778 ft | 100 kts | 280° |
| 2026-05-04 02:26 | -22.94898 | -43.81265 | 1877 ft | 99 kts | 278° |
| 2026-05-04 02:27 | -22.94803 | -43.82002 | 1975 ft | 99 kts | 277° |
| 2026-05-04 02:27 | -22.94724 | -43.82735 | 2074 ft | 98 kts | 276° |
| 2026-05-04 02:27 | -22.94656 | -43.83469 | 2174 ft | 98 kts | 275° |
| 2026-05-04 02:27 | -22.94597 | -43.84200 | 2273 ft | 97 kts | 275° |
| 2026-05-04 02:28 | -22.94545 | -43.84930 | 2373 ft | 97 kts | 274° |
| 2026-05-04 02:28 | -22.94484 | -43.85658 | 2469 ft | 97 kts | 281° |
| 2026-05-04 02:28 | -22.94266 | -43.86333 | 2593 ft | 94 kts | 291° |
| 2026-05-04 02:28 | -22.94010 | -43.87039 | 2810 ft | 108 kts | 290° |
| 2026-05-04 02:29 | -22.93754 | -43.87817 | 2905 ft | 110 kts | 288° |
| 2026-05-04 02:29 | -22.93525 | -43.88603 | 2959 ft | 111 kts | 285° |
| 2026-05-04 02:29 | -22.93330 | -43.89352 | 2954 ft | 96 kts | 285° |
| 2026-05-04 02:29 | -22.93167 | -43.90044 | 3066 ft | 95 kts | 284° |
| 2026-05-04 02:30 | -22.93014 | -43.90745 | 3167 ft | 95 kts | 283° |
| 2026-05-04 02:30 | -22.92872 | -43.91439 | 3267 ft | 95 kts | 282° |
| 2026-05-04 02:30 | -22.92739 | -43.92141 | 3366 ft | 95 kts | 282° |
| 2026-05-04 02:30 | -22.92615 | -43.92837 | 3465 ft | 94 kts | 281° |
| 2026-05-04 02:31 | -22.92500 | -43.93532 | 3565 ft | 94 kts | 281° |
| 2026-05-04 02:31 | -22.92390 | -43.94227 | 3664 ft | 93 kts | 281° |
| 2026-05-04 02:31 | -22.92282 | -43.94914 | 3762 ft | 92 kts | 281° |
| 2026-05-04 02:31 | -22.92173 | -43.95597 | 3861 ft | 92 kts | 282° |
| 2026-05-04 02:32 | -22.92063 | -43.96275 | 3960 ft | 91 kts | 282° |
| 2026-05-04 02:32 | -22.91953 | -43.96948 | 4060 ft | 90 kts | 282° |
| 2026-05-04 02:32 | -22.91844 | -43.97613 | 4158 ft | 89 kts | 283° |
| 2026-05-04 02:32 | -22.91733 | -43.98273 | 4258 ft | 89 kts | 283° |
| 2026-05-04 02:33 | -22.91624 | -43.98925 | 4357 ft | 88 kts | 283° |
| 2026-05-04 02:33 | -22.91513 | -43.99572 | 4456 ft | 87 kts | 284° |
| 2026-05-04 02:33 | -22.91403 | -44.00210 | 4555 ft | 86 kts | 284° |
| 2026-05-04 02:33 | -22.91294 | -44.00839 | 4654 ft | 85 kts | 284° |
| 2026-05-04 02:34 | -22.91184 | -44.01461 | 4752 ft | 84 kts | 284° |
| 2026-05-04 02:34 | -22.91074 | -44.02078 | 4852 ft | 83 kts | 284° |
| 2026-05-04 02:34 | -22.90965 | -44.02684 | 4951 ft | 82 kts | 284° |
| 2026-05-04 02:34 | -22.90855 | -44.03282 | 5050 ft | 80 kts | 285° |
| 2026-05-04 02:35 | -22.90745 | -44.03871 | 5149 ft | 79 kts | 285° |
| 2026-05-04 02:35 | -22.90635 | -44.04452 | 5248 ft | 78 kts | 285° |
| 2026-05-04 02:35 | -22.90525 | -44.05022 | 5346 ft | 77 kts | 285° |
| 2026-05-04 02:35 | -22.90415 | -44.05587 | 5445 ft | 76 kts | 285° |
| 2026-05-04 02:36 | -22.90304 | -44.06142 | 5544 ft | 75 kts | 285° |
| 2026-05-04 02:36 | -22.90196 | -44.06685 | 5644 ft | 74 kts | 285° |
| 2026-05-04 02:36 | -22.90086 | -44.07230 | 5742 ft | 73 kts | 284° |
| 2026-05-04 02:36 | -22.89977 | -44.07766 | 5840 ft | 72 kts | 284° |
| 2026-05-04 02:37 | -22.89867 | -44.08289 | 5939 ft | 71 kts | 284° |
| 2026-05-04 02:37 | -22.89753 | -44.08819 | 6008 ft | 74 kts | 284° |
| 2026-05-04 02:37 | -22.89633 | -44.09369 | 6015 ft | 76 kts | 284° |
| 2026-05-04 02:37 | -22.89515 | -44.09925 | 6004 ft | 76 kts | 284° |
| 2026-05-04 02:38 | -22.89399 | -44.10480 | 6000 ft | 76 kts | 284° |
| 2026-05-04 02:38 | -22.89286 | -44.11035 | 6000 ft | 76 kts | 284° |
| 2026-05-04 02:38 | -22.89173 | -44.11591 | 6000 ft | 76 kts | 283° |
| 2026-05-04 02:38 | -22.89061 | -44.12149 | 6001 ft | 76 kts | 283° |
| 2026-05-04 02:39 | -22.88950 | -44.12706 | 6000 ft | 76 kts | 283° |
| 2026-05-04 02:39 | -22.88839 | -44.13265 | 6000 ft | 76 kts | 283° |
| 2026-05-04 02:39 | -22.88729 | -44.13826 | 6000 ft | 76 kts | 283° |
| 2026-05-04 02:39 | -22.88619 | -44.14386 | 6000 ft | 76 kts | 283° |
| 2026-05-04 02:40 | -22.88509 | -44.14945 | 6000 ft | 76 kts | 283° |
| 2026-05-04 02:40 | -22.88399 | -44.15507 | 6000 ft | 76 kts | 283° |
| 2026-05-04 02:40 | -22.88290 | -44.16068 | 6000 ft | 76 kts | 283° |
| 2026-05-04 02:40 | -22.88180 | -44.16630 | 6000 ft | 76 kts | 283° |
| 2026-05-04 02:41 | -22.88070 | -44.17194 | 6000 ft | 76 kts | 283° |
| 2026-05-04 02:41 | -22.87961 | -44.17756 | 6000 ft | 77 kts | 283° |
| 2026-05-04 02:41 | -22.87851 | -44.18320 | 6000 ft | 76 kts | 283° |
| 2026-05-04 02:41 | -22.87740 | -44.18883 | 6000 ft | 77 kts | 283° |
| 2026-05-04 02:42 | -22.87630 | -44.19446 | 6001 ft | 77 kts | 283° |
| 2026-05-04 02:42 | -22.87520 | -44.20011 | 6001 ft | 77 kts | 283° |
| 2026-05-04 02:42 | -22.87410 | -44.20575 | 6000 ft | 77 kts | 283° |
| 2026-05-04 02:42 | -22.87300 | -44.21139 | 6000 ft | 77 kts | 283° |
| 2026-05-04 02:43 | -22.87189 | -44.21703 | 6000 ft | 77 kts | 283° |
| 2026-05-04 02:43 | -22.87079 | -44.22270 | 6000 ft | 77 kts | 283° |
| 2026-05-04 02:43 | -22.86968 | -44.22836 | 6000 ft | 77 kts | 283° |
| 2026-05-04 02:43 | -22.86858 | -44.23401 | 6000 ft | 77 kts | 283° |
| 2026-05-04 02:44 | -22.86747 | -44.23969 | 6000 ft | 77 kts | 283° |
| 2026-05-04 02:44 | -22.86637 | -44.24535 | 6000 ft | 77 kts | 283° |
| 2026-05-04 02:44 | -22.86526 | -44.25105 | 6000 ft | 77 kts | 283° |
| 2026-05-04 02:44 | -22.86415 | -44.25671 | 6000 ft | 77 kts | 283° |
| 2026-05-04 02:45 | -22.86304 | -44.26239 | 6000 ft | 77 kts | 283° |
| 2026-05-04 02:45 | -22.86194 | -44.26806 | 6000 ft | 77 kts | 283° |
| 2026-05-04 02:45 | -22.86082 | -44.27379 | 6000 ft | 77 kts | 283° |
| 2026-05-04 02:45 | -22.85971 | -44.27948 | 6000 ft | 77 kts | 283° |
| 2026-05-04 02:46 | -22.85859 | -44.28517 | 6000 ft | 77 kts | 283° |
| 2026-05-04 02:46 | -22.85748 | -44.29089 | 6000 ft | 78 kts | 283° |
| 2026-05-04 02:46 | -22.85636 | -44.29659 | 6000 ft | 78 kts | 283° |
| 2026-05-04 02:46 | -22.85528 | -44.30232 | 6003 ft | 78 kts | 283° |
| 2026-05-04 02:47 | -22.85418 | -44.30813 | 6000 ft | 79 kts | 283° |
| 2026-05-04 02:47 | -22.85309 | -44.31392 | 6000 ft | 79 kts | 283° |
| 2026-05-04 02:47 | -22.85199 | -44.31973 | 6000 ft | 79 kts | 283° |
| 2026-05-04 02:47 | -22.85090 | -44.32550 | 6002 ft | 79 kts | 283° |
| 2026-05-04 02:48 | -22.84981 | -44.33139 | 6000 ft | 80 kts | 283° |
| 2026-05-04 02:48 | -22.84871 | -44.33725 | 5999 ft | 80 kts | 284° |
| 2026-05-04 02:48 | -22.84760 | -44.34316 | 6000 ft | 80 kts | 284° |
| 2026-05-04 02:48 | -22.84648 | -44.34903 | 6000 ft | 80 kts | 284° |
| 2026-05-04 02:49 | -22.84535 | -44.35491 | 6000 ft | 80 kts | 284° |
| 2026-05-04 02:49 | -22.84423 | -44.36077 | 6000 ft | 80 kts | 284° |
| 2026-05-04 02:49 | -22.84309 | -44.36667 | 6000 ft | 80 kts | 284° |
| 2026-05-04 02:49 | -22.84195 | -44.37255 | 6000 ft | 80 kts | 284° |
| 2026-05-04 02:50 | -22.84080 | -44.37845 | 6000 ft | 80 kts | 284° |
| 2026-05-04 02:50 | -22.83965 | -44.38433 | 6000 ft | 80 kts | 284° |
| 2026-05-04 02:50 | -22.83850 | -44.39024 | 6000 ft | 80 kts | 284° |
| 2026-05-04 02:50 | -22.83735 | -44.39614 | 6000 ft | 80 kts | 284° |
| 2026-05-04 02:51 | -22.83620 | -44.40203 | 6000 ft | 80 kts | 284° |
| 2026-05-04 02:51 | -22.83505 | -44.40793 | 6000 ft | 80 kts | 284° |
| 2026-05-04 02:51 | -22.83389 | -44.41385 | 6000 ft | 80 kts | 284° |
| 2026-05-04 02:51 | -22.83272 | -44.41976 | 6000 ft | 80 kts | 284° |
| 2026-05-04 02:52 | -22.83156 | -44.42564 | 6001 ft | 80 kts | 284° |
| 2026-05-04 02:52 | -22.83039 | -44.43155 | 6001 ft | 80 kts | 284° |
| 2026-05-04 02:52 | -22.82924 | -44.43745 | 5993 ft | 81 kts | 282° |
| 2026-05-04 02:52 | -22.82811 | -44.44330 | 6024 ft | 79 kts | 284° |
| 2026-05-04 02:53 | -22.82686 | -44.44946 | 6071 ft | 88 kts | 283° |
| 2026-05-04 02:53 | -22.82552 | -44.45598 | 5952 ft | 86 kts | 283° |
| 2026-05-04 02:53 | -22.82436 | -44.46199 | 5953 ft | 79 kts | 284° |
| 2026-05-04 02:53 | -22.82323 | -44.46787 | 5996 ft | 80 kts | 284° |
| 2026-05-04 02:54 | -22.82208 | -44.47378 | 6004 ft | 81 kts | 284° |
| 2026-05-04 02:54 | -22.82091 | -44.47971 | 6004 ft | 81 kts | 284° |
| 2026-05-04 02:54 | -22.81974 | -44.48566 | 6002 ft | 81 kts | 284° |
| 2026-05-04 02:54 | -22.81858 | -44.49157 | 6001 ft | 81 kts | 284° |
| 2026-05-04 02:55 | -22.81624 | -44.50348 | 6000 ft | 81 kts | 284° |
| 2026-05-04 02:55 | -22.81506 | -44.50948 | 6000 ft | 81 kts | 284° |
| 2026-05-04 02:55 | -22.81390 | -44.51542 | 6000 ft | 81 kts | 284° |
| 2026-05-04 02:56 | -22.81272 | -44.52139 | 6000 ft | 81 kts | 284° |
| 2026-05-04 02:56 | -22.81155 | -44.52737 | 6000 ft | 81 kts | 284° |
| 2026-05-04 02:56 | -22.81037 | -44.53336 | 6001 ft | 81 kts | 284° |
| 2026-05-04 02:56 | -22.80921 | -44.53937 | 6000 ft | 82 kts | 284° |
| 2026-05-04 02:57 | -22.80804 | -44.54536 | 6000 ft | 82 kts | 284° |
| 2026-05-04 02:57 | -22.80687 | -44.55137 | 6000 ft | 82 kts | 284° |
| 2026-05-04 02:57 | -22.80569 | -44.55740 | 6000 ft | 82 kts | 284° |
| 2026-05-04 02:57 | -22.80451 | -44.56342 | 6000 ft | 82 kts | 284° |
| 2026-05-04 02:58 | -22.80332 | -44.56946 | 6000 ft | 82 kts | 284° |
| 2026-05-04 02:58 | -22.80214 | -44.57548 | 6000 ft | 82 kts | 284° |
| 2026-05-04 02:58 | -22.80096 | -44.58149 | 6000 ft | 82 kts | 284° |
| 2026-05-04 02:58 | -22.79977 | -44.58753 | 6000 ft | 82 kts | 284° |
| 2026-05-04 02:59 | -22.79858 | -44.59359 | 6000 ft | 82 kts | 284° |
| 2026-05-04 02:59 | -22.79739 | -44.59961 | 6000 ft | 82 kts | 284° |
| 2026-05-04 02:59 | -22.79620 | -44.60567 | 6000 ft | 82 kts | 284° |
| 2026-05-04 02:59 | -22.79500 | -44.61171 | 6000 ft | 82 kts | 284° |
| 2026-05-04 03:00 | -22.79381 | -44.61777 | 6000 ft | 82 kts | 284° |
| 2026-05-04 03:00 | -22.79262 | -44.62379 | 6000 ft | 82 kts | 283° |
| 2026-05-04 03:00 | -22.79136 | -44.62986 | 6000 ft | 82 kts | 284° |
| 2026-05-04 03:00 | -22.79017 | -44.63592 | 6000 ft | 82 kts | 284° |
| 2026-05-04 03:01 | -22.78893 | -44.64199 | 6000 ft | 83 kts | 283° |
| 2026-05-04 03:01 | -22.78760 | -44.64803 | 6000 ft | 83 kts | 284° |
| 2026-05-04 03:01 | -22.78626 | -44.65405 | 6000 ft | 83 kts | 283° |
| 2026-05-04 03:01 | -22.78495 | -44.66011 | 6001 ft | 83 kts | 283° |
| 2026-05-04 03:02 | -22.78368 | -44.66616 | 6000 ft | 83 kts | 283° |
| 2026-05-04 03:02 | -22.78246 | -44.67224 | 6000 ft | 83 kts | 283° |
| 2026-05-04 03:02 | -22.78117 | -44.67832 | 6000 ft | 83 kts | 283° |
| 2026-05-04 03:02 | -22.77990 | -44.68439 | 6001 ft | 83 kts | 283° |
| 2026-05-04 03:03 | -22.77877 | -44.69049 | 6000 ft | 83 kts | 283° |
| 2026-05-04 03:03 | -22.77768 | -44.69663 | 6000 ft | 83 kts | 283° |
| 2026-05-04 03:03 | -22.77658 | -44.70275 | 6000 ft | 83 kts | 283° |
| 2026-05-04 03:03 | -22.77545 | -44.70888 | 6000 ft | 83 kts | 283° |
| 2026-05-04 03:04 | -22.77430 | -44.71501 | 6000 ft | 83 kts | 283° |
| 2026-05-04 03:04 | -22.77312 | -44.72112 | 6000 ft | 83 kts | 283° |
| 2026-05-04 03:04 | -22.77190 | -44.72719 | 6000 ft | 83 kts | 283° |
| 2026-05-04 03:04 | -22.77059 | -44.73333 | 6000 ft | 83 kts | 283° |
| 2026-05-04 03:05 | -22.76928 | -44.73941 | 6000 ft | 83 kts | 283° |
| 2026-05-04 03:05 | -22.76803 | -44.74552 | 6000 ft | 83 kts | 283° |
| 2026-05-04 03:05 | -22.76673 | -44.75162 | 6000 ft | 83 kts | 283° |
| 2026-05-04 03:05 | -22.76542 | -44.75769 | 6126 ft | 84 kts | 283° |
| 2026-05-04 03:06 | -22.76394 | -44.76471 | 6035 ft | 96 kts | 283° |
| 2026-05-04 03:06 | -22.76277 | -44.77080 | 6118 ft | 94 kts | 282° |
| 2026-05-04 03:06 | -22.76136 | -44.77756 | 5947 ft | 88 kts | 283° |
| 2026-05-04 03:06 | -22.76038 | -44.78337 | 6101 ft | 78 kts | 278° |
| 2026-05-04 03:07 | -22.75910 | -44.78976 | 5985 ft | 89 kts | 283° |
| 2026-05-04 03:07 | -22.75784 | -44.79615 | 5941 ft | 84 kts | 283° |
| 2026-05-04 03:07 | -22.75667 | -44.80226 | 5975 ft | 83 kts | 283° |
| 2026-05-04 03:07 | -22.75552 | -44.80840 | 5995 ft | 84 kts | 283° |
| 2026-05-04 03:08 | -22.75440 | -44.81459 | 6002 ft | 84 kts | 283° |
| 2026-05-04 03:08 | -22.75326 | -44.82072 | 6002 ft | 84 kts | 283° |
| 2026-05-04 03:08 | -22.75209 | -44.82694 | 6001 ft | 84 kts | 283° |
| 2026-05-04 03:08 | -22.75092 | -44.83311 | 6001 ft | 84 kts | 283° |
| 2026-05-04 03:09 | -22.74973 | -44.83927 | 6000 ft | 84 kts | 284° |
| 2026-05-04 03:09 | -22.74854 | -44.84544 | 6000 ft | 84 kts | 284° |
| 2026-05-04 03:09 | -22.74733 | -44.85163 | 6000 ft | 84 kts | 284° |
| 2026-05-04 03:09 | -22.74612 | -44.85781 | 6000 ft | 84 kts | 284° |
| 2026-05-04 03:10 | -22.74491 | -44.86399 | 6000 ft | 84 kts | 284° |
| 2026-05-04 03:10 | -22.74369 | -44.87016 | 6000 ft | 84 kts | 284° |
| 2026-05-04 03:10 | -22.74247 | -44.87635 | 6000 ft | 84 kts | 284° |
| 2026-05-04 03:10 | -22.74125 | -44.88254 | 6001 ft | 84 kts | 284° |
| 2026-05-04 03:11 | -22.74001 | -44.88874 | 6001 ft | 84 kts | 284° |
| 2026-05-04 03:11 | -22.73878 | -44.89495 | 6001 ft | 85 kts | 284° |
| 2026-05-04 03:11 | -22.73754 | -44.90117 | 6001 ft | 85 kts | 284° |
| 2026-05-04 03:11 | -22.73630 | -44.90739 | 6001 ft | 85 kts | 284° |
| 2026-05-04 03:12 | -22.73506 | -44.91364 | 6001 ft | 85 kts | 284° |
| 2026-05-04 03:12 | -22.73381 | -44.91991 | 6001 ft | 85 kts | 284° |
| 2026-05-04 03:12 | -22.73256 | -44.92618 | 6001 ft | 85 kts | 284° |
| 2026-05-04 03:12 | -22.73131 | -44.93247 | 6001 ft | 86 kts | 284° |
| 2026-05-04 03:13 | -22.73006 | -44.93874 | 6001 ft | 86 kts | 284° |
| 2026-05-04 03:13 | -22.72880 | -44.94505 | 6001 ft | 86 kts | 284° |
| 2026-05-04 03:13 | -22.72753 | -44.95137 | 6001 ft | 86 kts | 284° |
| 2026-05-04 03:13 | -22.72627 | -44.95769 | 6001 ft | 86 kts | 284° |
| 2026-05-04 03:14 | -22.72501 | -44.96401 | 6001 ft | 86 kts | 284° |
| 2026-05-04 03:14 | -22.72374 | -44.97036 | 6001 ft | 87 kts | 284° |
| 2026-05-04 03:14 | -22.72247 | -44.97674 | 6001 ft | 87 kts | 284° |
| 2026-05-04 03:14 | -22.72120 | -44.98311 | 6001 ft | 87 kts | 284° |
| 2026-05-04 03:15 | -22.71992 | -44.98949 | 6001 ft | 87 kts | 284° |
| 2026-05-04 03:15 | -22.71865 | -44.99587 | 6001 ft | 87 kts | 284° |
| 2026-05-04 03:15 | -22.71738 | -45.00228 | 6001 ft | 88 kts | 284° |
| 2026-05-04 03:15 | -22.71613 | -45.00879 | 6002 ft | 89 kts | 284° |
| 2026-05-04 03:16 | -22.71488 | -45.01532 | 6000 ft | 89 kts | 284° |
| 2026-05-04 03:16 | -22.71362 | -45.02192 | 6000 ft | 89 kts | 284° |
| 2026-05-04 03:16 | -22.71234 | -45.02851 | 6000 ft | 90 kts | 284° |
| 2026-05-04 03:16 | -22.71106 | -45.03511 | 6000 ft | 90 kts | 284° |
| 2026-05-04 03:17 | -22.70977 | -45.04170 | 6001 ft | 90 kts | 284° |
| 2026-05-04 03:17 | -22.70846 | -45.04835 | 6001 ft | 90 kts | 284° |
| 2026-05-04 03:17 | -22.70716 | -45.05499 | 6001 ft | 90 kts | 284° |
| 2026-05-04 03:17 | -22.70584 | -45.06165 | 6001 ft | 91 kts | 284° |
| 2026-05-04 03:18 | -22.70452 | -45.06832 | 6001 ft | 91 kts | 284° |
| 2026-05-04 03:18 | -22.70320 | -45.07500 | 6001 ft | 91 kts | 284° |
| 2026-05-04 03:18 | -22.70187 | -45.08167 | 6001 ft | 91 kts | 284° |
| 2026-05-04 03:18 | -22.70053 | -45.08839 | 6001 ft | 91 kts | 284° |
| 2026-05-04 03:19 | -22.69920 | -45.09509 | 6001 ft | 91 kts | 285° |
| 2026-05-04 03:19 | -22.69785 | -45.10183 | 6001 ft | 92 kts | 285° |
| 2026-05-04 03:19 | -22.69651 | -45.10855 | 6001 ft | 92 kts | 285° |
| 2026-05-04 03:19 | -22.69516 | -45.11529 | 6001 ft | 92 kts | 285° |
| 2026-05-04 03:20 | -22.69381 | -45.12203 | 6000 ft | 92 kts | 285° |
| 2026-05-04 03:20 | -22.69245 | -45.12881 | 6001 ft | 92 kts | 285° |
| 2026-05-04 03:20 | -22.69110 | -45.13557 | 6001 ft | 92 kts | 285° |
| 2026-05-04 03:20 | -22.68974 | -45.14234 | 6001 ft | 92 kts | 285° |
| 2026-05-04 03:21 | -22.68837 | -45.14914 | 6001 ft | 92 kts | 285° |
| 2026-05-04 03:21 | -22.68701 | -45.15593 | 6000 ft | 93 kts | 285° |
| 2026-05-04 03:21 | -22.68564 | -45.16272 | 6000 ft | 93 kts | 285° |
| 2026-05-04 03:21 | -22.68427 | -45.16953 | 6000 ft | 93 kts | 285° |
| 2026-05-04 03:22 | -22.68290 | -45.17636 | 5996 ft | 93 kts | 285° |
| 2026-05-04 03:22 | -22.68154 | -45.18311 | 6098 ft | 96 kts | 284° |
| 2026-05-04 03:22 | -22.67993 | -45.19066 | 6095 ft | 106 kts | 285° |
| 2026-05-04 03:22 | -22.67830 | -45.19845 | 6030 ft | 105 kts | 284° |
| 2026-05-04 03:23 | -22.67672 | -45.20619 | 5971 ft | 107 kts | 283° |
| 2026-05-04 03:23 | -22.67528 | -45.21343 | 5873 ft | 92 kts | 284° |
| 2026-05-04 03:23 | -22.67401 | -45.22014 | 5948 ft | 91 kts | 284° |
| 2026-05-04 03:23 | -22.67269 | -45.22692 | 5996 ft | 93 kts | 284° |
| 2026-05-04 03:24 | -22.67133 | -45.23375 | 6008 ft | 94 kts | 284° |
| 2026-05-04 03:24 | -22.66958 | -45.24064 | 6009 ft | 96 kts | 284° |
| 2026-05-04 03:24 | -22.66766 | -45.24760 | 6001 ft | 97 kts | 283° |
| 2026-05-04 03:24 | -22.66583 | -45.25461 | 5999 ft | 96 kts | 283° |
| 2026-05-04 03:25 | -22.66414 | -45.26157 | 5999 ft | 96 kts | 282° |
| 2026-05-04 03:25 | -22.66253 | -45.26858 | 6000 ft | 96 kts | 282° |
| 2026-05-04 03:25 | -22.66101 | -45.27555 | 6002 ft | 95 kts | 281° |
| 2026-05-04 03:25 | -22.65956 | -45.28255 | 6010 ft | 94 kts | 281° |
| 2026-05-04 03:26 | -22.65820 | -45.28939 | 6036 ft | 92 kts | 281° |
| 2026-05-04 03:26 | -22.65692 | -45.29610 | 6097 ft | 89 kts | 280° |
| 2026-05-04 03:26 | -22.65574 | -45.30239 | 6213 ft | 82 kts | 279° |
| 2026-05-04 03:26 | -22.65469 | -45.30798 | 6468 ft | 68 kts | 277° |
| 2026-05-04 03:27 | -22.65391 | -45.31196 | 6892 ft | 39 kts | 274° |
| 2026-05-04 03:27 | -22.65358 | -45.31375 | 7103 ft | 21 kts | 269° |
| 2026-05-04 03:27 | -22.65383 | -45.31572 | 7072 ft | 40 kts | 254° |
| 2026-05-04 03:27 | -22.65573 | -45.31985 | 6846 ft | 82 kts | 243° |
| 2026-05-04 03:28 | -22.65970 | -45.32616 | 5928 ft | 123 kts | 237° |
| 2026-05-04 03:28 | -22.66581 | -45.33360 | 4476 ft | 107 kts | 159° |
| 2026-05-04 03:28 | -22.67427 | -45.33546 | 4268 ft | 144 kts | 197° |
| 2026-05-04 03:28 | -22.68186 | -45.33823 | 4459 ft | 99 kts | 197° |
| 2026-05-04 03:29 | -22.68410 | -45.33883 | 5068 ft | 9 kts | 182° |
| 2026-05-04 03:29 | -22.68443 | -45.33806 | 5047 ft | 17 kts | 145° |
| 2026-05-04 03:29 | -22.68501 | -45.33542 | 5064 ft | 59 kts | 93° |
| 2026-05-04 03:29 | -22.68394 | -45.33027 | 5243 ft | 73 kts | 64° |
| 2026-05-04 03:30 | -22.68095 | -45.32698 | 5572 ft | 55 kts | 18° |
| 2026-05-04 03:30 | -22.67724 | -45.32875 | 5640 ft | 80 kts | 309° |
| 2026-05-04 03:30 | -22.67623 | -45.33605 | 5186 ft | 120 kts | 263° |
| 2026-05-04 03:30 | -22.67918 | -45.34518 | 4338 ft | 103 kts | 246° |
| 2026-05-04 03:31 | -22.68059 | -45.35027 | 5195 ft | 48 kts | 263° |
| 2026-05-04 03:31 | -22.68057 | -45.35113 | 5389 ft | 6 kts | 270° |
| 2026-05-04 03:31 | -22.68059 | -45.35124 | 5429 ft | 2 kts | 269° |
| 2026-05-04 03:31 | -22.68059 | -45.35139 | 5456 ft | 2 kts | 268° |
| 2026-05-04 03:32 | -22.68059 | -45.35146 | 5487 ft | 1 kts | 268° |
| 2026-05-04 03:32 | -22.68059 | -45.35156 | 5501 ft | 4 kts | 267° |
| 2026-05-04 03:32 | -22.68064 | -45.35188 | 5573 ft | 7 kts | 266° |
| 2026-05-04 03:32 | -22.68073 | -45.35240 | 5686 ft | 8 kts | 268° |
| 2026-05-04 03:33 | -22.68083 | -45.35310 | 5816 ft | 9 kts | 282° |
| 2026-05-04 03:33 | -22.68077 | -45.35377 | 5931 ft | 8 kts | 294° |
| 2026-05-04 03:33 | -22.68048 | -45.35440 | 6007 ft | 14 kts | 286° |
| 2026-05-04 03:33 | -22.68012 | -45.35577 | 6052 ft | 23 kts | 282° |
| 2026-05-04 03:34 | -22.67945 | -45.35795 | 6145 ft | 36 kts | 293° |
| 2026-05-04 03:34 | -22.67791 | -45.36008 | 6361 ft | 36 kts | 321° |
| 2026-05-04 03:34 | -22.67506 | -45.36004 | 6518 ft | 59 kts | 12° |
| 2026-05-04 03:34 | -22.67140 | -45.35517 | 6448 ft | 109 kts | 62° |
| 2026-05-04 03:35 | -22.67022 | -45.34590 | 5825 ft | 140 kts | 92° |
| 2026-05-04 03:35 | -22.67236 | -45.33489 | 3933 ft | 157 kts | 107° |
| 2026-05-04 03:35 | -22.67579 | -45.32409 | 3411 ft | 112 kts | 108° |
| 2026-05-04 03:35 | -22.67732 | -45.31840 | 4020 ft | 43 kts | 104° |
| 2026-05-04 03:36 | -22.67778 | -45.31599 | 4180 ft | 44 kts | 104° |
| 2026-05-04 03:36 | -22.67861 | -45.31195 | 4361 ft | 60 kts | 102° |
| 2026-05-04 03:36 | -22.67956 | -45.30731 | 4677 ft | 70 kts | 103° |
| 2026-05-04 03:36 | -22.68086 | -45.30173 | 4945 ft | 78 kts | 104° |
| 2026-05-04 03:37 | -22.68197 | -45.29609 | 5197 ft | 76 kts | 99° |
| 2026-05-04 03:37 | -22.68199 | -45.29596 | 5203 ft | 76 kts | 98° |
| 2026-05-04 03:37 | -22.68254 | -45.29268 | 5325 ft | 77 kts | 98° |
| 2026-05-04 03:38 | -22.68347 | -45.28739 | 5485 ft | 75 kts | 94° |
| 2026-05-04 03:38 | -22.68371 | -45.28219 | 5645 ft | 63 kts | 81° |
| 2026-05-04 03:38 | -22.68247 | -45.27786 | 5714 ft | 64 kts | 51° |
| 2026-05-04 03:38 | -22.67858 | -45.27490 | 5662 ft | 76 kts | 12° |
| 2026-05-04 03:39 | -22.67295 | -45.27515 | 5532 ft | 85 kts | 341° |
| 2026-05-04 03:39 | -22.66757 | -45.27809 | 5420 ft | 89 kts | 323° |
| 2026-05-04 03:39 | -22.66281 | -45.28248 | 5288 ft | 90 kts | 315° |
| 2026-05-04 03:39 | -22.65913 | -45.28780 | 5144 ft | 89 kts | 298° |
| 2026-05-04 03:40 | -22.65705 | -45.29432 | 4945 ft | 95 kts | 282° |
| 2026-05-04 03:40 | -22.65605 | -45.30196 | 5380 ft | 109 kts | 277° |
| 2026-05-04 03:40 | -22.65531 | -45.31005 | 5532 ft | 103 kts | 281° |
| 2026-05-04 03:40 | -22.65445 | -45.31709 | 5419 ft | 85 kts | 277° |
| 2026-05-04 03:41 | -22.65394 | -45.32238 | 5410 ft | 60 kts | 278° |
| 2026-05-04 03:41 | -22.65372 | -45.32648 | 4432 ft | 22 kts | 293° |
| 2026-05-04 03:41 | -22.65365 | -45.32650 | 4442 ft | 0 kts | 290° |
| 2026-05-04 03:41 | -22.65472 | -45.32586 | 4262 ft | 28 kts | 255° |
| 2026-05-04 03:42 | -22.65574 | -45.32606 | 4533 ft | 23 kts | 212° |
| 2026-05-04 03:42 | -22.65696 | -45.32821 | 4271 ft | 31 kts | 232° |
| 2026-05-04 03:42 | -22.65781 | -45.33063 | 4202 ft | 38 kts | 255° |
| 2026-05-04 03:42 | -22.65833 | -45.33308 | 3732 ft | 3 kts | 286° |
| 2026-05-04 03:43 | -22.65932 | -45.33300 | 3500 ft | 20 kts | 265° |
| 2026-05-04 03:43 | -22.66006 | -45.33290 | 3347 ft | 0 kts | 258° |
| 2026-05-04 03:43 | -22.66024 | -45.33303 | 3575 ft | 8 kts | 236° |
| 2026-05-04 03:44 | -22.66018 | -45.33288 | 3928 ft | 16 kts | 253° |
| 2026-05-04 03:44 | -22.66031 | -45.33237 | 3313 ft | 50 kts | 116° |
| 2026-05-04 03:45 | -22.66091 | -45.33127 | 3307 ft | 35 kts | 118° |
| 2026-05-04 03:45 | -22.66158 | -45.32864 | 3164 ft | 45 kts | 95° |
| 2026-05-04 03:45 | -22.66128 | -45.32628 | 3104 ft | 24 kts | 79° |
| 2026-05-04 03:45 | -22.66127 | -45.32509 | 3079 ft | 4 kts | 88° |
| 2026-05-04 03:46 | -22.66128 | -45.32508 | 3078 ft | 0 kts | 89° |
| 2026-05-04 03:46 | -22.66129 | -45.32508 | 3078 ft | 0 kts | 90° |
| 2026-05-04 03:46 | -22.66129 | -45.32507 | 3077 ft | 0 kts | 89° |
| 2026-05-04 03:47 | -22.66130 | -45.32507 | 3076 ft | 0 kts | 89° |
| 2026-05-04 03:48 | -22.66131 | -45.32507 | 3076 ft | 0 kts | 90° |
| 2026-05-04 03:48 | -22.66137 | -45.32482 | 3075 ft | 13 kts | 93° |
| 2026-05-04 03:48 | -22.66141 | -45.32292 | 3135 ft | 49 kts | 98° |
| 2026-05-04 03:49 | -22.66293 | -45.31710 | 3202 ft | 104 kts | 117° |
| 2026-05-04 03:49 | -22.66726 | -45.30977 | 3167 ft | 121 kts | 126° |
| 2026-05-04 03:49 | -22.67265 | -45.30270 | 2963 ft | 120 kts | 134° |
| 2026-05-04 03:49 | -22.67857 | -45.29651 | 2849 ft | 118 kts | 138° |
| 2026-05-04 03:50 | -22.68462 | -45.29096 | 2859 ft | 110 kts | 143° |
| 2026-05-04 03:50 | -22.69072 | -45.28578 | 2944 ft | 117 kts | 141° |
| 2026-05-04 03:50 | -22.69614 | -45.27946 | 2922 ft | 110 kts | 124° |
| 2026-05-04 03:50 | -22.69974 | -45.27274 | 3119 ft | 104 kts | 123° |
| 2026-05-04 03:51 | -22.70369 | -45.26591 | 3241 ft | 111 kts | 125° |
| 2026-05-04 03:51 | -22.70808 | -45.25894 | 3269 ft | 106 kts | 123° |
| 2026-05-04 03:51 | -22.71218 | -45.25223 | 3410 ft | 112 kts | 123° |
| 2026-05-04 03:51 | -22.71640 | -45.24526 | 3465 ft | 106 kts | 120° |
| 2026-05-04 03:52 | -22.71699 | -45.23817 | 3612 ft | 91 kts | 70° |
| 2026-05-04 03:52 | -22.71240 | -45.23399 | 3841 ft | 89 kts | 16° |
| 2026-05-04 03:52 | -22.70657 | -45.23550 | 4048 ft | 90 kts | 323° |
| 2026-05-04 03:52 | -22.70237 | -45.24074 | 4274 ft | 96 kts | 306° |
| 2026-05-04 03:53 | -22.69870 | -45.24686 | 4450 ft | 97 kts | 301° |
| 2026-05-04 03:53 | -22.69543 | -45.25321 | 4642 ft | 96 kts | 297° |
| 2026-05-04 03:53 | -22.69248 | -45.25967 | 4837 ft | 95 kts | 295° |
| 2026-05-04 03:53 | -22.68982 | -45.26612 | 5040 ft | 94 kts | 293° |
| 2026-05-04 03:54 | -22.68739 | -45.27269 | 5235 ft | 93 kts | 292° |
| 2026-05-04 03:54 | -22.68527 | -45.27921 | 5427 ft | 91 kts | 291° |
| 2026-05-04 03:54 | -22.68338 | -45.28562 | 5623 ft | 88 kts | 290° |
| 2026-05-04 03:54 | -22.68166 | -45.29183 | 5819 ft | 85 kts | 289° |
| 2026-05-04 03:55 | -22.68003 | -45.29781 | 6017 ft | 81 kts | 289° |
| 2026-05-04 03:55 | -22.67843 | -45.30350 | 6214 ft | 77 kts | 288° |
| 2026-05-04 03:55 | -22.67683 | -45.30884 | 6509 ft | 81 kts | 287° |
| 2026-05-04 03:55 | -22.67454 | -45.31526 | 6763 ft | 98 kts | 287° |
| 2026-05-04 03:56 | -22.67217 | -45.32122 | 6891 ft | 79 kts | 286° |
| 2026-05-04 03:56 | -22.66986 | -45.32756 | 6938 ft | 104 kts | 285° |
| 2026-05-04 03:56 | -22.66730 | -45.33559 | 6966 ft | 119 kts | 284° |
| 2026-05-04 03:56 | -22.66472 | -45.34420 | 6981 ft | 122 kts | 283° |
| 2026-05-04 03:57 | -22.66215 | -45.35310 | 6986 ft | 126 kts | 284° |
| 2026-05-04 03:57 | -22.65979 | -45.36178 | 6950 ft | 114 kts | 284° |
| 2026-05-04 03:57 | -22.65755 | -45.36963 | 6625 ft | 107 kts | 285° |
| 2026-05-04 03:57 | -22.65543 | -45.37733 | 6097 ft | 105 kts | 286° |
| 2026-05-04 03:58 | -22.65086 | -45.39393 | 6715 ft | 118 kts | 287° |
| 2026-05-04 03:58 | -22.64823 | -45.40253 | 6726 ft | 115 kts | 287° |
| 2026-05-04 03:58 | -22.64626 | -45.40827 | 6082 ft | 2 kts | 291° |